Time;durP1;ratioP1;P1;durP2;ratioP2;P2;SDS_P1;SDS_P2;PMS_P1;PMS_P2;Temp;Humidity;BMP_temperature;BMP_pressure;BME280_temperature;BME280_humidity;BME280_pressure;Samples;Min_cycle;Max_cycle;Signal;HPM_P1;HPM_P2
2022/01/18 00:00:19;;;;;;;0.77;0.77;;;3.00;99.90;;;;;;5151805;28;20045;-73
2022/01/18 00:02:59;;;;;;;0.40;0.40;;;3.00;99.90;;;;;;5134616;28;20066;-73
2022/01/18 00:05:35;;;;;;;0.40;0.40;;;3.00;99.90;;;;;;5133098;28;20063;-73
2022/01/18 00:08:07;;;;;;;0.43;0.43;;;3.00;99.90;;;;;;5141796;28;20054;-73
2022/01/18 00:10:44;;;;;;;0.60;0.60;;;3.00;99.90;;;;;;5150271;28;20360;-73
2022/01/18 00:18:41;;;;;;;0.43;0.43;;;3.00;99.90;;;;;;5142675;28;20042;-73
2022/01/18 00:21:21;;;;;;;0.38;0.38;;;3.00;99.90;;;;;;5160084;28;20041;-73
2022/01/18 00:23:58;;;;;;;0.50;0.50;;;3.00;99.90;;;;;;5157531;28;20062;-74
2022/01/18 00:26:33;;;;;;;0.40;0.40;;;3.00;99.90;;;;;;5125899;28;20113;-73
2022/01/18 00:29:13;;;;;;;0.65;0.65;;;2.90;99.90;;;;;;5140084;28;20053;-74
2022/01/18 00:31:59;;;;;;;0.50;0.50;;;2.90;99.90;;;;;;5146814;28;20033;-74
2022/01/18 00:34:34;;;;;;;0.35;0.35;;;2.90;99.90;;;;;;5149922;28;20046;-73
2022/01/18 00:39:41;;;;;;;0.40;0.40;;;2.90;99.90;;;;;;5235283;28;20052;-73
2022/01/18 00:42:15;;;;;;;0.68;0.68;;;2.90;99.90;;;;;;5220778;28;20277;-73
2022/01/18 00:44:46;;;;;;;0.55;0.55;;;2.70;99.90;;;;;;5226791;28;20043;-73
2022/01/18 00:47:17;;;;;;;0.50;0.50;;;2.60;99.90;;;;;;5230322;28;20040;-72
2022/01/18 00:49:58;;;;;;;0.47;0.47;;;2.50;99.90;;;;;;5226464;28;20422;-72
2022/01/18 00:52:38;;;;;;;0.30;0.30;;;2.50;99.90;;;;;;5211016;28;20029;-73
2022/01/18 00:55:14;;;;;;;0.60;0.60;;;2.40;99.90;;;;;;5214930;28;20523;-72
2022/01/18 00:57:45;;;;;;;0.52;0.52;;;2.40;99.90;;;;;;5205120;28;20032;-73
2022/01/18 01:00:21;;;;;;;0.60;0.60;;;2.40;99.90;;;;;;5219932;28;20482;-73
2022/01/18 01:02:55;;;;;;;0.40;0.40;;;2.30;99.90;;;;;;5224204;28;20044;-72
2022/01/18 01:05:29;;;;;;;0.50;0.50;;;2.50;99.90;;;;;;5204131;28;20064;-73
2022/01/18 01:08:00;;;;;;;;;;;2.60;99.90;;;;;;5248637;28;20040;-72
2022/01/18 01:10:37;;;;;;;0.52;0.52;;;2.50;99.90;;;;;;5221974;28;19927;-72
2022/01/18 01:13:12;;;;;;;0.40;0.40;;;2.40;99.90;;;;;;5201811;28;20051;-72
2022/01/18 01:18:43;;;;;;;0.47;0.47;;;2.40;99.90;;;;;;5258732;28;20029;-73
2022/01/18 01:44:04;;;;;;;0.40;0.40;;;2.30;99.90;;;;;;5250117;28;20611;-72
2022/01/18 01:46:40;;;;;;;0.40;0.40;;;2.30;99.90;;;;;;5219163;28;20050;-73
2022/01/18 01:49:13;;;;;;;0.50;0.50;;;2.30;99.90;;;;;;5234396;28;20048;-73
2022/01/18 01:51:48;;;;;;;0.50;0.50;;;2.30;99.90;;;;;;5247856;28;20058;-73
2022/01/18 01:54:21;;;;;;;;;;;2.20;99.90;;;;;;5225324;28;20040;-73
2022/01/18 01:56:58;;;;;;;0.50;0.50;;;2.20;99.90;;;;;;5227948;28;19913;-73
2022/01/18 01:59:35;;;;;;;0.40;0.40;;;2.10;99.90;;;;;;5219661;28;20356;-72
2022/01/18 02:02:13;;;;;;;0.50;0.50;;;2.10;99.90;;;;;;5241809;28;20042;-72
2022/01/18 02:04:47;;;;;;;0.50;0.50;;;2.00;99.90;;;;;;5225106;28;20142;-73
2022/01/18 02:07:20;;;;;;;0.50;0.50;;;2.00;99.90;;;;;;5212209;28;20082;-74
2022/01/18 02:09:57;;;;;;;0.50;0.50;;;2.00;99.90;;;;;;5237452;28;20055;-74
2022/01/18 02:12:29;;;;;;;0.40;0.40;;;2.00;99.90;;;;;;5224082;28;20031;-74
2022/01/18 02:15:10;;;;;;;0.40;0.40;;;2.10;99.90;;;;;;5223894;28;20052;-73
2022/01/18 02:23:38;;;;;;;0.40;0.40;;;2.10;99.90;;;;;;5217000;28;20036;-74
2022/01/18 02:26:09;;;;;;;0.40;0.40;;;2.10;99.90;;;;;;5201065;28;20519;-74
2022/01/18 02:28:48;;;;;;;0.50;0.50;;;2.00;99.90;;;;;;5235958;28;20043;-73
2022/01/18 02:31:19;;;;;;;0.45;0.45;;;2.10;99.90;;;;;;5197565;28;20261;-73
2022/01/18 02:33:53;;;;;;;0.40;0.40;;;2.00;99.90;;;;;;5253759;28;20044;-74
2022/01/18 02:36:26;;;;;;;0.47;0.47;;;2.10;99.90;;;;;;5209679;28;20137;-74
2022/01/18 02:38:57;;;;;;;0.60;0.60;;;2.10;99.90;;;;;;5216936;28;20470;-73
2022/01/18 02:41:36;;;;;;;0.35;0.35;;;2.20;99.90;;;;;;5210867;28;20436;-74
2022/01/18 02:44:14;;;;;;;0.40;0.40;;;2.10;99.90;;;;;;5237354;28;20619;-73
2022/01/18 02:46:44;;;;;;;0.50;0.50;;;2.10;99.90;;;;;;5232811;28;20021;-73
2022/01/18 02:49:18;;;;;;;0.40;0.40;;;2.10;99.90;;;;;;5221085;28;20401;-73
2022/01/18 02:51:51;;;;;;;0.52;0.52;;;2.00;99.90;;;;;;5202122;28;20040;-74
2022/01/18 02:54:27;;;;;;;0.30;0.30;;;2.00;99.90;;;;;;5236189;28;20043;-74
2022/01/18 02:57:03;;;;;;;0.70;0.70;;;2.00;99.90;;;;;;5227443;28;20051;-73
2022/01/18 02:59:51;;;;;;;0.47;0.47;;;2.00;99.90;;;;;;5190902;28;20424;-73
2022/01/18 03:05:17;;;;;;;0.80;0.80;;;2.00;99.90;;;;;;5209627;28;20052;-74
2022/01/18 03:07:51;;;;;;;0.80;0.80;;;2.00;99.90;;;;;;5229092;28;20100;-73
2022/01/18 03:10:22;;;;;;;0.45;0.45;;;1.90;99.90;;;;;;5225948;28;20051;-74
2022/01/18 03:12:53;;;;;;;0.43;0.43;;;1.90;99.90;;;;;;5225344;28;20352;-74
2022/01/18 03:15:24;;;;;;;1.02;0.93;;;1.90;99.90;;;;;;5225188;28;20121;-74
2022/01/18 03:17:57;;;;;;;0.30;0.30;;;1.90;99.90;;;;;;5223724;28;20425;-74
2022/01/18 03:20:29;;;;;;;0.30;0.30;;;1.90;99.90;;;;;;5204293;28;20419;-74
2022/01/18 03:23:11;;;;;;;1.00;1.00;;;1.80;99.90;;;;;;5220906;28;20032;-74
2022/01/18 03:28:33;;;;;;;0.40;0.40;;;1.70;99.90;;;;;;5208978;28;20493;-72
2022/01/18 03:31:04;;;;;;;0.32;0.32;;;1.80;99.90;;;;;;5223950;28;20044;-72
2022/01/18 03:33:42;;;;;;;0.45;0.45;;;1.80;99.90;;;;;;5224732;28;20059;-73
2022/01/18 03:36:16;;;;;;;0.50;0.50;;;1.70;99.90;;;;;;5223930;28;20024;-74
2022/01/18 03:38:51;;;;;;;0.40;0.40;;;1.80;99.90;;;;;;5209212;28;20036;-73
2022/01/18 03:41:22;;;;;;;0.40;0.40;;;1.80;99.90;;;;;;5224159;28;20736;-74
2022/01/18 03:43:57;;;;;;;0.50;0.50;;;1.80;99.90;;;;;;5241849;28;20025;-73
2022/01/18 03:46:28;;;;;;;0.40;0.40;;;1.80;99.90;;;;;;5250977;28;20095;-74
2022/01/18 03:49:03;;;;;;;0.40;0.40;;;1.80;99.90;;;;;;5262675;28;20044;-72
2022/01/18 03:51:39;;;;;;;0.55;0.55;;;1.80;99.90;;;;;;5247239;28;20031;-72
2022/01/18 03:54:14;;;;;;;0.40;0.40;;;1.90;99.90;;;;;;5248060;28;20032;-73
2022/01/18 03:56:45;;;;;;;0.50;0.50;;;1.90;99.90;;;;;;5227881;28;20050;-72
2022/01/18 03:59:18;;;;;;;0.40;0.40;;;1.90;99.90;;;;;;5244062;28;20024;-72
2022/01/18 04:01:54;;;;;;;0.93;0.93;;;2.00;99.90;;;;;;5242837;28;20051;-72
2022/01/18 04:04:25;;;;;;;0.50;0.50;;;2.00;99.90;;;;;;5229338;28;20381;-72
2022/01/18 04:07:01;;;;;;;0.40;0.40;;;1.90;99.90;;;;;;5273858;28;20093;-73
2022/01/18 04:09:35;;;;;;;0.40;0.40;;;1.90;99.90;;;;;;5259138;28;20023;-72
2022/01/18 04:12:10;;;;;;;0.50;0.50;;;2.00;99.90;;;;;;5254719;28;20226;-73
2022/01/18 04:14:48;;;;;;;0.40;0.40;;;2.00;99.90;;;;;;5261231;28;20027;-72
2022/01/18 04:17:51;;;;;;;0.40;0.40;;;2.10;99.90;;;;;;5266096;28;20031;-75
2022/01/18 04:26:56;;;;;;;0.40;0.40;;;2.10;99.90;;;;;;5261136;28;20371;-73
2022/01/18 04:29:03;;;;;;;0.40;0.40;;;2.10;99.90;;;;;;5250155;28;20039;-74
2022/01/18 04:31:36;;;;;;;0.40;0.40;;;2.00;99.90;;;;;;5260465;28;20066;-74
2022/01/18 04:34:07;;;;;;;0.40;0.40;;;2.10;99.90;;;;;;5260940;28;20032;-72
2022/01/18 04:36:41;;;;;;;0.40;0.40;;;2.20;99.90;;;;;;5260390;28;20040;-72
2022/01/18 04:39:11;;;;;;;0.40;0.40;;;2.20;99.90;;;;;;5263575;28;20032;-74
2022/01/18 04:41:46;;;;;;;0.30;0.30;;;2.10;99.90;;;;;;5260727;28;20016;-72
2022/01/18 04:50:07;;;;;;;1.80;1.67;;;2.10;99.90;;;;;;5259713;28;20051;-72
2022/01/18 04:52:40;;;;;;;0.45;0.45;;;2.10;99.90;;;;;;5258518;28;20083;-72
2022/01/18 04:55:17;;;;;;;0.65;0.65;;;2.10;99.90;;;;;;5252396;28;20036;-72
2022/01/18 04:57:54;;;;;;;0.40;0.40;;;2.10;99.90;;;;;;5259569;28;20069;-73
2022/01/18 05:00:26;;;;;;;0.40;0.40;;;2.10;99.90;;;;;;5265341;28;20422;-72
2022/01/18 05:02:59;;;;;;;0.50;0.50;;;2.00;99.90;;;;;;5258449;28;20281;-73
2022/01/18 05:05:37;;;;;;;0.50;0.50;;;2.10;99.90;;;;;;5223937;28;20090;-73
2022/01/18 05:08:14;;;;;;;0.40;0.40;;;2.00;99.90;;;;;;5245794;28;20124;-72
2022/01/18 05:10:51;;;;;;;0.40;0.40;;;2.10;99.90;;;;;;5208491;28;20068;-72
2022/01/18 05:19:02;;;;;;;0.50;0.50;;;2.10;99.90;;;;;;5233911;28;20070;-73
2022/01/18 05:24:36;;;;;;;0.50;0.50;;;2.20;99.90;;;;;;5232127;28;20036;-73
2022/01/18 05:27:09;;;;;;;0.40;0.40;;;2.20;99.90;;;;;;5221892;28;20036;-72
2022/01/18 05:29:47;;;;;;;0.82;0.82;;;2.10;99.90;;;;;;5224851;28;20094;-73
2022/01/18 05:32:27;;;;;;;0.50;0.50;;;2.20;99.90;;;;;;5205263;28;20035;-73
2022/01/18 05:34:58;;;;;;;0.30;0.30;;;2.10;99.90;;;;;;5237334;28;20024;-73
2022/01/18 05:37:33;;;;;;;0.50;0.50;;;2.00;99.90;;;;;;5205408;28;20075;-73
2022/01/18 05:40:09;;;;;;;0.50;0.50;;;2.10;99.90;;;;;;5222604;28;20032;-73
2022/01/18 05:42:40;;;;;;;0.40;0.40;;;2.00;99.90;;;;;;5223010;28;20036;-73
2022/01/18 05:45:18;;;;;;;0.50;0.50;;;1.90;99.90;;;;;;5218261;28;20116;-72
2022/01/18 05:47:51;;;;;;;0.63;0.63;;;2.00;99.90;;;;;;5201903;28;20048;-73
2022/01/18 05:50:22;;;;;;;0.40;0.40;;;2.00;99.90;;;;;;5217291;28;20122;-73
2022/01/18 05:52:57;;;;;;;0.57;0.57;;;2.00;99.90;;;;;;5220657;28;20044;-73
2022/01/18 05:55:31;;;;;;;0.50;0.50;;;2.00;99.90;;;;;;5215915;28;20044;-73
2022/01/18 05:58:04;;;;;;;0.52;0.52;;;2.00;99.90;;;;;;5218932;28;20098;-73
2022/01/18 06:00:37;;;;;;;1.50;1.50;;;2.10;99.90;;;;;;5233303;28;20114;-73
2022/01/18 06:03:14;;;;;;;0.80;0.80;;;2.00;99.90;;;;;;5203480;28;20917;-72
2022/01/18 06:08:36;;;;;;;0.50;0.50;;;1.90;99.90;;;;;;5257946;28;20333;-74
2022/01/18 06:11:08;;;;;;;1.63;1.52;;;1.90;99.90;;;;;;5260663;28;20095;-73
2022/01/18 06:13:46;;;;;;;0.60;0.60;;;1.90;99.90;;;;;;5242067;28;20280;-73
2022/01/18 06:16:21;;;;;;;0.60;0.60;;;1.80;99.90;;;;;;5255772;28;20064;-73
2022/01/18 06:18:54;;;;;;;0.60;0.60;;;1.80;99.90;;;;;;5259645;28;20066;-73
2022/01/18 06:21:28;;;;;;;0.50;0.50;;;2.00;99.90;;;;;;5258939;28;20154;-72
2022/01/18 06:23:58;;;;;;;0.75;0.75;;;2.00;99.90;;;;;;5254182;28;20353;-73
2022/01/18 06:26:32;;;;;;;0.50;0.50;;;2.00;99.90;;;;;;5257767;28;20020;-73
2022/01/18 06:29:06;;;;;;;0.50;0.50;;;1.90;99.90;;;;;;5258872;28;20094;-73
2022/01/18 06:31:39;;;;;;;0.65;0.65;;;1.80;99.90;;;;;;5258869;28;20039;-73
2022/01/18 06:34:14;;;;;;;0.52;0.52;;;1.80;99.90;;;;;;5260998;28;20047;-73
2022/01/18 06:36:52;;;;;;;0.45;0.45;;;1.80;99.90;;;;;;5281508;28;20035;-73
2022/01/18 06:39:27;;;;;;;0.45;0.45;;;2.00;99.90;;;;;;5258698;28;20040;-74
2022/01/18 06:42:01;;;;;;;0.40;0.40;;;2.00;99.90;;;;;;5251825;28;20034;-72
2022/01/18 06:44:34;;;;;;;0.65;0.65;;;2.00;99.90;;;;;;5242277;28;20350;-73
2022/01/18 06:47:10;;;;;;;0.68;0.68;;;2.10;99.90;;;;;;5260068;28;20054;-73
2022/01/18 06:49:44;;;;;;;0.50;0.50;;;2.10;99.90;;;;;;5241756;28;20482;-73
2022/01/18 06:52:16;;;;;;;0.60;0.60;;;2.10;99.90;;;;;;5243784;28;20062;-72
2022/01/18 06:54:55;;;;;;;0.47;0.47;;;2.10;99.90;;;;;;5224930;28;20082;-72
2022/01/18 06:57:34;;;;;;;0.60;0.60;;;2.10;99.90;;;;;;5254556;28;20027;-73
2022/01/18 07:00:07;;;;;;;0.77;0.77;;;2.10;99.90;;;;;;5239626;28;20020;-73
2022/01/18 07:02:43;;;;;;;0.30;0.30;;;2.10;99.90;;;;;;5252791;28;20388;-73
2022/01/18 07:05:16;;;;;;;0.50;0.50;;;2.10;99.90;;;;;;5254345;28;20075;-73
2022/01/18 07:07:49;;;;;;;0.40;0.40;;;2.20;99.90;;;;;;5265212;28;20042;-73
2022/01/18 07:10:20;;;;;;;0.53;0.53;;;2.20;99.90;;;;;;5257770;28;20369;-73
2022/01/18 07:12:56;;;;;;;0.45;0.45;;;2.20;99.90;;;;;;5270658;28;20082;-73
2022/01/18 07:15:32;;;;;;;3.78;1.98;;;2.30;99.90;;;;;;5263790;28;20039;-73
2022/01/18 07:18:05;;;;;;;0.60;0.60;;;2.30;99.90;;;;;;5258605;28;20077;-72
2022/01/18 07:20:38;;;;;;;0.50;0.50;;;2.40;99.90;;;;;;5258661;28;20035;-73
2022/01/18 07:23:15;;;;;;;0.40;0.40;;;2.40;99.90;;;;;;5253717;28;20107;-73
2022/01/18 07:25:54;;;;;;;0.50;0.50;;;2.50;99.90;;;;;;5257590;28;20059;-73
2022/01/18 07:28:25;;;;;;;0.40;0.40;;;2.50;99.90;;;;;;5238223;28;20253;-73
2022/01/18 07:31:00;;;;;;;0.70;0.70;;;2.60;99.90;;;;;;5253485;28;20070;-73
2022/01/18 07:33:36;;;;;;;0.50;0.50;;;2.60;99.90;;;;;;5251694;28;20067;-75
2022/01/18 07:36:10;;;;;;;2.17;1.98;;;2.70;99.90;;;;;;5222567;28;20031;-72
2022/01/18 07:38:41;;;;;;;1.35;1.33;;;2.70;99.90;;;;;;5258001;28;20035;-73
2022/01/18 07:41:14;;;;;;;0.40;0.40;;;2.70;99.90;;;;;;5259030;28;20040;-73
2022/01/18 07:43:51;;;;;;;0.45;0.45;;;2.80;99.90;;;;;;5226435;28;20316;-72
2022/01/18 07:46:22;;;;;;;0.50;0.50;;;2.80;99.90;;;;;;5257821;28;20107;-73
2022/01/18 07:48:52;;;;;;;0.40;0.40;;;2.80;99.90;;;;;;5263699;28;20035;-73
2022/01/18 07:51:29;;;;;;;0.50;0.50;;;2.90;99.90;;;;;;5244293;28;20555;-74
2022/01/18 07:54:02;;;;;;;0.40;0.40;;;2.90;99.90;;;;;;5243018;28;20147;-73
2022/01/18 07:56:41;;;;;;;0.40;0.40;;;3.00;99.90;;;;;;5259292;28;20138;-74
2022/01/18 07:59:15;;;;;;;1.27;1.20;;;3.00;99.90;;;;;;5245229;28;20046;-74
2022/01/18 08:01:48;;;;;;;0.40;0.40;;;3.00;99.90;;;;;;5265716;28;20024;-73
2022/01/18 08:04:19;;;;;;;0.30;0.30;;;3.00;99.90;;;;;;5222490;28;20272;-73
2022/01/18 08:06:55;;;;;;;0.82;0.82;;;3.00;99.90;;;;;;5271402;28;20073;-73
2022/01/18 08:09:36;;;;;;;0.50;0.50;;;3.00;99.90;;;;;;5227883;28;20028;-73
2022/01/18 08:12:08;;;;;;;0.70;0.70;;;3.10;99.90;;;;;;5238767;28;20455;-73
2022/01/18 08:14:43;;;;;;;0.55;0.55;;;3.20;99.90;;;;;;5243341;28;20028;-72
2022/01/18 08:17:16;;;;;;;0.63;0.63;;;3.20;99.90;;;;;;5243297;28;20107;-73
2022/01/18 08:19:52;;;;;;;0.60;0.60;;;3.20;99.90;;;;;;5260980;28;20020;-73
2022/01/18 08:22:24;;;;;;;0.60;0.60;;;3.20;99.90;;;;;;5261177;28;20027;-73
2022/01/18 08:24:57;;;;;;;0.40;0.40;;;3.20;99.90;;;;;;5243080;28;20036;-73
2022/01/18 08:27:31;;;;;;;0.70;0.70;;;3.30;99.90;;;;;;5206548;28;20095;-74
2022/01/18 08:30:05;;;;;;;0.57;0.57;;;3.30;99.90;;;;;;5275772;27;20060;-73
2022/01/18 08:32:40;;;;;;;0.60;0.60;;;3.30;99.90;;;;;;5259978;28;20082;-73
2022/01/18 08:35:13;;;;;;;0.50;0.50;;;3.30;99.90;;;;;;5226934;28;20032;-75
2022/01/18 08:37:47;;;;;;;0.67;0.67;;;3.40;99.90;;;;;;5245549;28;20056;-74
2022/01/18 08:40:18;;;;;;;0.50;0.50;;;3.40;99.90;;;;;;5209125;28;20051;-73
2022/01/18 08:42:55;;;;;;;0.40;0.40;;;3.50;99.90;;;;;;5247322;28;20364;-74
2022/01/18 08:45:29;;;;;;;0.43;0.43;;;3.50;99.90;;;;;;5244274;28;20574;-74
2022/01/18 08:48:03;;;;;;;0.60;0.60;;;3.40;99.90;;;;;;5243787;28;20040;-73
2022/01/18 08:50:38;;;;;;;0.50;0.50;;;3.60;99.90;;;;;;5239015;28;20395;-73
2022/01/18 08:53:10;;;;;;;;;;;3.60;99.90;;;;;;5260145;28;20103;-74
2022/01/18 08:55:43;;;;;;;1.63;1.60;;;3.70;99.90;;;;;;5242826;28;20516;-74
2022/01/18 08:58:21;;;;;;;0.40;0.40;;;3.70;99.90;;;;;;5208924;28;20051;-74
2022/01/18 09:00:55;;;;;;;0.40;0.40;;;3.70;99.90;;;;;;5225015;28;20048;-74
2022/01/18 09:03:28;;;;;;;0.60;0.60;;;3.90;99.90;;;;;;5240261;28;20040;-74
2022/01/18 09:06:04;;;;;;;0.43;0.43;;;3.80;99.90;;;;;;5234495;28;20043;-74
2022/01/18 09:08:38;;;;;;;0.52;0.52;;;3.90;99.90;;;;;;5206444;28;20036;-74
2022/01/18 09:11:11;;;;;;;0.52;0.52;;;3.90;99.90;;;;;;5226227;28;20146;-74
2022/01/18 09:13:47;;;;;;;0.40;0.40;;;3.90;99.90;;;;;;5240716;28;20036;-74
2022/01/18 09:16:25;;;;;;;0.57;0.57;;;4.10;99.90;;;;;;5242143;28;20039;-74
2022/01/18 09:18:58;;;;;;;0.50;0.50;;;4.10;99.90;;;;;;5259816;28;20020;-74
2022/01/18 09:21:41;;;;;;;3.63;1.85;;;4.10;99.90;;;;;;5242029;28;20034;-74
2022/01/18 09:24:13;;;;;;;0.50;0.50;;;4.20;99.90;;;;;;5225206;28;20040;-74
2022/01/18 09:26:44;;;;;;;0.60;0.60;;;4.20;99.90;;;;;;5241450;28;20230;-74
2022/01/18 09:29:15;;;;;;;0.40;0.40;;;4.30;99.90;;;;;;5258932;28;20031;-74
2022/01/18 09:31:55;;;;;;;0.50;0.50;;;4.40;99.90;;;;;;5261266;28;20032;-74
2022/01/18 09:34:25;;;;;;;0.40;0.40;;;4.50;99.90;;;;;;5259716;28;20035;-74
2022/01/18 09:37:01;;;;;;;0.68;0.68;;;4.40;99.90;;;;;;5257114;28;20515;-73
2022/01/18 09:39:32;;;;;;;0.40;0.40;;;4.60;99.90;;;;;;5225938;28;20031;-74
2022/01/18 09:42:08;;;;;;;0.40;0.40;;;4.70;99.90;;;;;;5258468;28;20031;-74
2022/01/18 09:44:41;;;;;;;0.50;0.50;;;4.70;99.90;;;;;;5239535;28;20121;-74
2022/01/18 09:47:13;;;;;;;1.48;1.40;;;4.50;99.90;;;;;;5261199;28;20047;-74
2022/01/18 09:49:44;;;;;;;0.77;0.77;;;4.60;99.90;;;;;;5259894;28;20039;-74
2022/01/18 09:52:18;;;;;;;0.40;0.40;;;4.50;99.90;;;;;;5225478;28;20032;-73
2022/01/18 09:54:58;;;;;;;2.08;1.98;;;4.70;99.90;;;;;;5259666;28;20047;-73
2022/01/18 09:57:33;;;;;;;0.40;0.40;;;4.70;99.90;;;;;;5258226;28;20027;-73
2022/01/18 10:00:09;;;;;;;0.40;0.40;;;4.90;99.90;;;;;;5225285;28;20427;-73
2022/01/18 10:02:40;;;;;;;0.47;0.47;;;4.70;99.90;;;;;;5241385;28;20083;-73
2022/01/18 10:05:28;;;;;;;0.40;0.40;;;4.70;99.90;;;;;;5211396;28;20105;-74
2022/01/18 10:08:12;;;;;;;0.40;0.40;;;4.80;99.90;;;;;;5237431;28;20031;-73
2022/01/18 10:10:45;;;;;;;0.47;0.47;;;4.90;99.90;;;;;;5204650;28;20039;-74
2022/01/18 10:13:29;;;;;;;0.77;0.77;;;5.00;99.90;;;;;;5242389;28;20029;-73
2022/01/18 10:16:21;;;;;;;0.50;0.50;;;5.00;99.90;;;;;;5247627;28;20031;-73
2022/01/18 10:19:05;;;;;;;1.58;1.50;;;5.00;99.90;;;;;;5237538;28;20064;-73
2022/01/18 10:21:45;;;;;;;0.55;0.55;;;5.10;99.90;;;;;;5238130;28;20043;-72
2022/01/18 10:24:26;;;;;;;0.50;0.50;;;5.20;99.90;;;;;;5244839;28;20079;-72
2022/01/18 10:27:02;;;;;;;0.60;0.60;;;5.10;99.90;;;;;;5227164;28;20048;-73
2022/01/18 10:29:53;;;;;;;0.50;0.50;;;5.30;99.90;;;;;;5225225;28;20025;-73
2022/01/18 10:32:34;;;;;;;0.50;0.50;;;5.30;99.90;;;;;;5247757;28;20111;-74
2022/01/18 10:35:10;;;;;;;0.75;0.75;;;5.40;99.90;;;;;;5227081;28;20107;-73
2022/01/18 10:37:43;;;;;;;0.50;0.50;;;5.50;99.90;;;;;;5245065;28;20103;-73
2022/01/18 10:40:17;;;;;;;0.88;0.88;;;5.50;99.90;;;;;;5242519;28;20056;-73
2022/01/18 10:42:52;;;;;;;1.52;1.48;;;6.00;99.90;;;;;;5256887;28;20062;-74
2022/01/18 10:45:37;;;;;;;0.50;0.50;;;6.40;99.90;;;;;;5236058;28;20329;-73
2022/01/18 10:48:13;;;;;;;0.50;0.50;;;6.10;99.90;;;;;;5257597;28;20040;-74
2022/01/18 10:50:48;;;;;;;0.40;0.40;;;6.20;99.90;;;;;;5248348;28;20039;-73
2022/01/18 10:53:25;;;;;;;0.40;0.40;;;6.20;99.90;;;;;;5238625;28;20464;-74
2022/01/18 10:56:21;;;;;;;0.68;0.68;;;6.40;99.90;;;;;;5253089;28;20060;-73
2022/01/18 10:58:55;;;;;;;0.40;0.40;;;6.20;99.90;;;;;;5240754;28;20074;-72
2022/01/18 11:01:29;;;;;;;0.60;0.60;;;6.40;99.90;;;;;;5239010;28;20056;-73
2022/01/18 11:04:13;;;;;;;0.60;0.60;;;6.80;99.90;;;;;;5238178;28;20481;-72
2022/01/18 11:07:03;;;;;;;0.55;0.55;;;6.90;99.90;;;;;;5222292;28;20074;-73
2022/01/18 11:09:35;;;;;;;1.30;1.27;;;6.80;99.90;;;;;;5252521;28;20036;-74
2022/01/18 11:12:11;;;;;;;0.57;0.57;;;7.40;99.90;;;;;;5260224;28;20028;-73
2022/01/18 11:14:49;;;;;;;0.77;0.77;;;7.10;99.90;;;;;;5244859;28;20036;-74
2022/01/18 11:17:25;;;;;;;0.60;0.60;;;7.40;99.90;;;;;;5263534;28;20028;-73
2022/01/18 11:19:57;;;;;;;0.65;0.65;;;7.80;99.90;;;;;;5246718;28;20051;-73
2022/01/18 11:22:28;;;;;;;0.50;0.50;;;7.90;99.90;;;;;;5263139;28;20086;-73
2022/01/18 11:25:01;;;;;;;0.80;0.80;;;8.10;99.90;;;;;;5242152;28;20442;-73
2022/01/18 11:27:36;;;;;;;0.80;0.80;;;7.50;99.90;;;;;;5244812;28;20038;-73
2022/01/18 11:30:13;;;;;;;0.57;0.57;;;7.80;99.90;;;;;;5261899;28;20040;-74
2022/01/18 11:32:47;;;;;;;0.40;0.40;;;8.10;99.90;;;;;;5241241;28;20032;-73
2022/01/18 11:35:34;;;;;;;0.60;0.60;;;7.50;99.90;;;;;;5244739;28;20123;-73
2022/01/18 11:38:18;;;;;;;0.60;0.60;;;6.80;99.90;;;;;;5257199;28;20560;-73
2022/01/18 11:40:59;;;;;;;0.50;0.50;;;7.20;99.90;;;;;;5245016;28;20024;-73
2022/01/18 11:43:44;;;;;;;0.68;0.68;;;7.60;99.90;;;;;;5265465;28;20039;-74
2022/01/18 11:46:30;;;;;;;0.70;0.70;;;8.30;99.90;;;;;;5264792;28;20093;-73
2022/01/18 11:49:25;;;;;;;0.52;0.52;;;7.70;99.90;;;;;;5244540;28;20054;-73
2022/01/18 11:52:10;;;;;;;0.60;0.60;;;6.60;99.90;;;;;;5244434;28;20350;-74
2022/01/18 11:54:58;;;;;;;0.65;0.65;;;6.10;99.90;;;;;;5244592;28;20042;-74
2022/01/18 11:57:31;;;;;;;1.25;1.25;;;6.30;99.90;;;;;;5245792;28;20531;-73
2022/01/18 12:00:12;;;;;;;0.57;0.57;;;6.30;99.90;;;;;;5243248;28;20546;-73
2022/01/18 12:02:48;;;;;;;0.40;0.40;;;5.70;99.90;;;;;;5259243;28;20398;-74
2022/01/18 12:05:21;;;;;;;0.55;0.55;;;5.80;99.90;;;;;;5233233;28;20448;-75
2022/01/18 12:08:00;;;;;;;0.60;0.60;;;6.90;99.90;;;;;;5261564;28;20032;-74
2022/01/18 12:10:38;;;;;;;0.52;0.52;;;7.90;99.90;;;;;;5263898;28;20051;-74
2022/01/18 12:13:27;;;;;;;0.60;0.60;;;7.60;99.90;;;;;;5263084;28;20058;-73
2022/01/18 12:16:05;;;;;;;0.60;0.60;;;7.70;99.90;;;;;;5262249;28;20032;-73
2022/01/18 12:18:59;;;;;;;0.65;0.65;;;6.90;99.90;;;;;;5263070;28;20024;-73
2022/01/18 12:21:42;;;;;;;0.70;0.70;;;7.60;99.90;;;;;;5243921;28;20024;-73
2022/01/18 12:24:24;;;;;;;1.63;1.60;;;7.30;99.90;;;;;;5262331;28;20024;-73
2022/01/18 12:27:02;;;;;;;0.50;0.50;;;6.90;99.90;;;;;;5258658;28;20393;-73
2022/01/18 12:34:50;;;;;;;0.63;0.63;;;7.10;99.90;;;;;;5263491;28;20040;-73
2022/01/18 12:37:21;;;;;;;0.93;0.93;;;7.10;99.90;;;;;;5247610;28;20064;-73
2022/01/18 12:45:30;;;;;;;0.80;0.80;;;7.70;99.90;;;;;;5264259;28;20553;-74
2022/01/18 12:48:09;;;;;;;0.40;0.40;;;6.90;99.90;;;;;;5245799;28;20051;-74
2022/01/18 12:50:52;;;;;;;1.23;1.20;;;6.50;99.90;;;;;;5246580;28;20333;-74
2022/01/18 12:53:36;;;;;;;0.38;0.38;;;5.80;99.90;;;;;;5261716;28;20030;-74
2022/01/18 12:56:10;;;;;;;0.47;0.47;;;5.50;99.90;;;;;;5244643;28;20040;-73
2022/01/18 12:58:46;;;;;;;0.63;0.63;;;5.10;99.90;;;;;;5239822;28;20036;-74
2022/01/18 13:01:24;;;;;;;0.85;0.85;;;4.90;99.90;;;;;;5261510;28;20380;-75
2022/01/18 13:03:57;;;;;;;0.40;0.40;;;4.80;99.90;;;;;;5259506;28;20094;-73
2022/01/18 13:06:35;;;;;;;0.60;0.60;;;5.00;99.90;;;;;;5231318;28;20067;-73
2022/01/18 13:09:08;;;;;;;0.40;0.40;;;5.30;99.90;;;;;;5216843;28;20045;-74
2022/01/18 13:11:42;;;;;;;0.40;0.40;;;5.40;99.90;;;;;;5254763;28;20679;-73
2022/01/18 13:14:15;;;;;;;1.08;1.08;;;5.20;99.90;;;;;;5246064;28;20187;-74
2022/01/18 13:22:57;;;;;;;0.30;0.30;;;5.20;99.90;;;;;;5239221;28;20064;-74
2022/01/18 13:25:31;;;;;;;0.52;0.52;;;4.90;99.90;;;;;;5234957;28;20033;-73
2022/01/18 13:28:06;;;;;;;1.42;1.35;;;4.80;99.90;;;;;;5221501;28;20051;-73
2022/01/18 13:30:42;;;;;;;0.55;0.55;;;5.40;99.90;;;;;;5235702;28;20028;-73
2022/01/18 13:33:16;;;;;;;0.85;0.85;;;5.30;99.90;;;;;;5238120;28;20024;-73
2022/01/18 13:35:49;;;;;;;0.52;0.52;;;4.80;99.90;;;;;;5237996;28;20052;-73
2022/01/18 13:38:22;;;;;;;0.53;0.53;;;4.40;99.90;;;;;;5237060;28;20097;-73
2022/01/18 13:40:56;;;;;;;0.50;0.50;;;4.30;99.90;;;;;;5217606;28;20032;-74
2022/01/18 13:43:34;;;;;;;;;;;4.30;99.90;;;;;;5233838;28;20448;-75
2022/01/18 13:46:07;;;;;;;0.50;0.50;;;4.80;99.90;;;;;;5220747;28;19913;-75
2022/01/18 13:48:40;;;;;;;0.40;0.40;;;4.60;99.90;;;;;;5237278;28;20047;-75
2022/01/18 13:51:14;;;;;;;0.40;0.40;;;4.80;99.90;;;;;;5251464;28;20024;-75
2022/01/18 13:53:59;;;;;;;0.63;0.63;;;5.20;99.90;;;;;;5235573;28;20040;-73
2022/01/18 13:56:30;;;;;;;0.45;0.45;;;5.70;99.90;;;;;;5216660;28;20043;-74
2022/01/18 13:59:11;;;;;;;0.40;0.40;;;6.10;99.90;;;;;;5235409;28;20044;-73
2022/01/18 14:01:42;;;;;;;0.60;0.60;;;6.60;99.90;;;;;;5234680;28;20100;-73
2022/01/18 14:04:19;;;;;;;0.52;0.52;;;6.60;99.90;;;;;;5228882;28;20040;-73
2022/01/18 14:06:57;;;;;;;0.70;0.70;;;6.00;99.90;;;;;;5256794;28;20089;-73
2022/01/18 14:09:35;;;;;;;0.80;0.80;;;6.00;99.90;;;;;;5258312;28;20100;-74
2022/01/18 14:12:23;;;;;;;0.60;0.60;;;5.30;99.90;;;;;;5256350;28;20032;-74
2022/01/18 14:14:54;;;;;;;0.50;0.50;;;5.50;99.90;;;;;;5239138;28;20497;-74
2022/01/18 14:17:30;;;;;;;0.60;0.60;;;5.50;99.90;;;;;;5224201;28;20073;-74
2022/01/18 14:20:13;;;;;;;0.80;0.80;;;5.30;99.90;;;;;;5252552;28;20028;-74
2022/01/18 14:22:43;;;;;;;0.45;0.45;;;5.00;99.90;;;;;;5257313;28;20878;-74
2022/01/18 14:25:14;;;;;;;0.40;0.40;;;4.70;99.90;;;;;;5254264;28;20166;-74
2022/01/18 14:27:48;;;;;;;0.65;0.65;;;4.50;99.90;;;;;;5256623;28;20028;-74
2022/01/18 14:30:29;;;;;;;0.68;0.68;;;4.30;99.90;;;;;;5224142;28;20032;-73
2022/01/18 14:33:06;;;;;;;0.40;0.40;;;4.20;99.90;;;;;;5241793;28;20051;-73
2022/01/18 14:35:47;;;;;;;0.50;0.50;;;4.10;99.90;;;;;;5258108;28;20047;-75
2022/01/18 14:38:23;;;;;;;0.50;0.50;;;3.90;99.90;;;;;;5251328;28;20032;-74
2022/01/18 14:41:04;;;;;;;0.50;0.50;;;3.90;99.90;;;;;;5225400;28;20036;-73
2022/01/18 14:43:41;;;;;;;0.50;0.50;;;3.80;99.90;;;;;;5258538;28;20039;-73
2022/01/18 14:46:36;;;;;;;0.40;0.40;;;3.70;99.90;;;;;;5258131;28;20028;-75
2022/01/18 14:49:07;;;;;;;2.85;1.55;;;3.60;99.90;;;;;;5227625;28;20166;-73
2022/01/18 14:51:42;;;;;;;1.27;1.15;;;3.50;99.90;;;;;;5257684;28;20028;-75
2022/01/18 14:54:21;;;;;;;0.55;0.55;;;3.40;99.90;;;;;;5242985;28;20036;-74
2022/01/18 14:56:52;;;;;;;0.50;0.50;;;3.40;99.90;;;;;;5241785;28;20629;-73
2022/01/18 14:59:25;;;;;;;0.57;0.57;;;3.30;99.90;;;;;;5258854;28;20040;-74
2022/01/18 15:01:59;;;;;;;0.68;0.68;;;3.20;99.90;;;;;;5259522;28;20029;-74
2022/01/18 15:04:37;;;;;;;0.50;0.50;;;3.20;99.90;;;;;;5218285;28;20086;-74
2022/01/18 15:07:10;;;;;;;0.47;0.47;;;3.10;99.90;;;;;;5240113;28;20044;-74